Terminal Aerodrome Forecast
Issued by NWS

Home | Current Version | Previous Version | Graphics & Text | Print | Product List | Glossary On
Versions: 1 2 3 4 5 6 7 8 9 10 11 12 13 14 15 16 17 18 19 20 21 22 23 24
000
FTUS43 KABR 241400 AAB
TAFMBG
TAF AMD
KMBG 241438Z 2415/2512 33017G23KT P6SM SCT015
     FM241800 33014G25KT P6SM SCT250
     FM250000 VRB05KT P6SM BKN250=

USA.gov is the U.S. government's official web portal to all federal, state and local government web resources and services.